Capitol Logistics 7478

Operating for MZN



KSEA
Seattle-Tacoma International Airport
Seattle, Washington
KBWI
Baltimore/Washington International Thurgood Marshall Airport
Baltimore, Maryland

Activity Log

Date Flight Route Aircraft Duration
No Flights Yet

Route Details

Aircraft Information
Primary: Boeing 767-300BDSF
Backup: Boeing 757-200SF
Route Data
Distance: 2026nm
Duration: 4h 34m
Recm'd Route: SEA NORMY J90 MWH J34 HLN KU06U DPR MCW DBQ JOT J30 MOPER J30 WHETT J30 TRAKK J30 APE NUSMM ANTHM3
Origin Wx: KSEA 180253Z 32006KT 10SM CLR 22/02 A3014 RMK AO2 SLP211 T02170022 56006
Dest. Wx: KBWI 180254Z 00000KT 10SM FEW110 SCT200 10/03 A2986 RMK AO2 SLP111 T01000033 51012
Notes: